createdAt,value
2022-10-26T00:01:10.001Z,12.77
2022-10-26T00:03:40.210Z,12.78
2022-10-26T00:06:10.742Z,12.81
2022-10-26T00:08:38.152Z,12.82
2022-10-26T00:11:05.882Z,12.81
2022-10-26T00:13:33.535Z,12.82
2022-10-26T00:18:32.619Z,12.86
2022-10-26T00:21:07.822Z,12.87
2022-10-26T00:23:34.846Z,12.87
2022-10-26T00:26:03.250Z,12.87
2022-10-26T00:28:30.470Z,12.88
2022-10-26T00:31:12.351Z,12.89
2022-10-26T00:33:39.331Z,12.90
2022-10-26T00:36:08.778Z,12.89
2022-10-26T00:38:35.911Z,12.91
2022-10-26T00:41:03.240Z,12.91
2022-10-26T00:43:29.934Z,12.91
2022-10-26T00:45:58.683Z,12.92
2022-10-26T00:48:29.525Z,12.91
2022-10-26T00:51:00.373Z,12.91
2022-10-26T00:53:28.628Z,12.93
2022-10-26T00:55:56.144Z,12.94
2022-10-26T00:58:25.523Z,12.95
2022-10-26T01:00:52.732Z,12.93
2022-10-26T01:03:20.403Z,12.93
2022-10-26T01:05:48.996Z,12.94
2022-10-26T01:08:17.658Z,12.94
2022-10-26T01:10:44.947Z,12.95
2022-10-26T01:13:13.831Z,12.95
2022-10-26T01:16:21.287Z,12.93
2022-10-26T01:19:38.620Z,12.93
2022-10-26T01:22:21.852Z,12.95
2022-10-26T01:25:02.520Z,12.95
2022-10-26T01:27:41.044Z,12.94
2022-10-26T01:30:37.308Z,12.94
2022-10-26T01:33:13.329Z,12.94
2022-10-26T01:35:53.442Z,12.95
2022-10-26T01:38:24.207Z,12.96
2022-10-26T01:41:17.810Z,12.95
2022-10-26T01:43:58.110Z,12.94
2022-10-26T01:46:28.609Z,12.91
2022-10-26T01:49:01.160Z,12.90
2022-10-26T01:51:29.618Z,12.89
2022-10-26T01:53:57.754Z,12.90
2022-10-26T01:56:31.670Z,12.92
2022-10-26T01:59:21.974Z,12.92
2022-10-26T02:01:50.369Z,12.92
2022-10-26T02:04:41.352Z,12.94
2022-10-26T02:07:29.973Z,12.94
2022-10-26T02:10:05.776Z,12.91
2022-10-26T02:12:59.265Z,12.89
2022-10-26T02:15:45.687Z,12.90
2022-10-26T02:18:30.486Z,12.90
2022-10-26T02:21:03.569Z,12.90
2022-10-26T02:23:34.304Z,12.89
2022-10-26T02:26:05.004Z,12.90
2022-10-26T02:28:38.508Z,12.88
2022-10-26T02:31:07.094Z,12.88
2022-10-26T02:33:39.417Z,12.90
2022-10-26T02:36:08.462Z,12.92
2022-10-26T02:38:38.841Z,12.91
2022-10-26T02:41:07.132Z,12.90
2022-10-26T02:43:41.467Z,12.92
2022-10-26T02:46:13.178Z,12.94
2022-10-26T02:48:40.442Z,12.96
2022-10-26T02:51:41.763Z,12.98
2022-10-26T02:54:46.724Z,12.98
2022-10-26T02:57:23.059Z,12.96
2022-10-26T02:59:50.583Z,12.94
2022-10-26T03:02:19.739Z,12.92
2022-10-26T03:04:49.676Z,12.90
2022-10-26T03:07:23.814Z,12.88
2022-10-26T03:09:50.939Z,12.85
2022-10-26T03:12:17.774Z,12.83
2022-10-26T03:14:44.935Z,12.81
2022-10-26T03:17:11.756Z,12.80
2022-10-26T03:19:38.706Z,12.81
2022-10-26T03:22:05.498Z,12.83
2022-10-26T03:24:32.403Z,12.83
2022-10-26T03:27:02.043Z,12.83
2022-10-26T03:29:29.425Z,12.84
2022-10-26T03:31:56.309Z,12.84
2022-10-26T03:34:23.141Z,12.84
2022-10-26T03:36:49.855Z,12.82
2022-10-26T03:39:17.034Z,12.79
2022-10-26T03:41:44.148Z,12.79
2022-10-26T03:44:11.102Z,12.78
2022-10-26T03:46:37.931Z,12.77
2022-10-26T03:49:04.838Z,12.75
2022-10-26T03:51:31.618Z,12.74
2022-10-26T03:53:58.351Z,12.73
2022-10-26T03:56:25.434Z,12.74
2022-10-26T03:58:52.380Z,12.74
2022-10-26T04:01:19.278Z,12.73
2022-10-26T04:03:46.348Z,12.72
2022-10-26T04:06:13.363Z,12.72
2022-10-26T04:08:40.122Z,12.73
2022-10-26T04:11:06.891Z,12.72
2022-10-26T04:13:33.794Z,12.69
2022-10-26T04:16:00.676Z,12.65
2022-10-26T04:18:27.504Z,12.64
2022-10-26T04:20:54.276Z,12.63
2022-10-26T04:23:21.585Z,12.62
2022-10-26T04:25:48.462Z,12.60
2022-10-26T04:28:15.281Z,12.58
2022-10-26T04:30:42.185Z,12.57
2022-10-26T04:33:09.552Z,12.55
2022-10-26T04:35:36.344Z,12.50
2022-10-26T04:38:05.663Z,12.49
2022-10-26T04:40:34.123Z,12.44
2022-10-26T04:43:01.241Z,12.42
2022-10-26T04:45:30.131Z,12.33
2022-10-26T04:48:05.113Z,12.29
2022-10-26T04:50:32.512Z,12.26
2022-10-26T04:53:00.059Z,12.16
2022-10-26T04:55:26.897Z,12.08
2022-10-26T04:57:55.971Z,12.00
2022-10-26T05:00:26.091Z,11.97
2022-10-26T05:03:07.843Z,11.94
2022-10-26T05:05:36.693Z,11.91
2022-10-26T05:08:03.816Z,11.87
2022-10-26T05:10:30.766Z,11.86
2022-10-26T05:12:59.563Z,11.82
2022-10-26T05:15:27.813Z,11.78
2022-10-26T05:18:02.855Z,11.75
2022-10-26T05:20:31.854Z,11.73
2022-10-26T05:23:01.155Z,11.69
2022-10-26T05:25:31.091Z,11.65
2022-10-26T05:28:03.542Z,11.61
2022-10-26T05:30:31.468Z,11.60
2022-10-26T05:33:02.464Z,11.60
2022-10-26T05:35:29.710Z,11.61
2022-10-26T05:37:56.710Z,11.62
2022-10-26T05:40:24.054Z,11.64
2022-10-26T05:42:51.840Z,11.64
2022-10-26T05:45:18.956Z,11.63
2022-10-26T05:47:46.013Z,11.63
2022-10-26T05:50:13.642Z,11.62
2022-10-26T05:52:42.533Z,11.62
2022-10-26T05:55:10.945Z,11.61
2022-10-26T05:57:38.262Z,11.62
2022-10-26T06:00:14.602Z,11.63
2022-10-26T06:02:49.271Z,11.63
2022-10-26T06:05:23.285Z,11.65
2022-10-26T06:07:50.740Z,11.63
2022-10-26T06:10:18.486Z,11.61
2022-10-26T06:33:47.063Z,12.02
2022-10-26T06:36:23.321Z,12.20
2022-10-26T06:38:56.901Z,12.18
2022-10-26T06:41:26.393Z,12.16
2022-10-26T06:43:54.805Z,12.12
2022-10-26T06:46:44.990Z,12.09
2022-10-26T06:49:28.460Z,12.07
2022-10-26T06:52:10.269Z,12.06
2022-10-26T06:54:49.666Z,12.06
2022-10-26T06:57:20.414Z,12.06
2022-10-26T06:59:53.195Z,12.05
2022-10-26T07:02:22.030Z,12.05
2022-10-26T07:04:50.425Z,12.07
2022-10-26T07:07:21.313Z,12.07
2022-10-26T07:09:50.407Z,12.09
2022-10-26T07:12:18.923Z,12.10
2022-10-26T07:14:47.111Z,12.13
2022-10-26T07:17:15.325Z,12.15
2022-10-26T07:19:44.942Z,12.17
2022-10-26T07:22:13.319Z,12.21
2022-10-26T07:24:41.434Z,12.26
2022-10-26T07:27:09.623Z,12.28
2022-10-26T07:29:37.995Z,12.31
2022-10-26T07:32:06.400Z,12.34
2022-10-26T07:34:34.673Z,12.39
2022-10-26T07:37:03.476Z,12.43
2022-10-26T07:39:32.957Z,12.49
2022-10-26T07:42:01.272Z,12.55
2022-10-26T07:44:29.532Z,12.59
2022-10-26T07:46:58.408Z,12.63
2022-10-26T07:49:27.923Z,12.67
2022-10-26T07:51:56.394Z,12.70
2022-10-26T07:54:24.794Z,12.74
2022-10-26T07:56:53.217Z,12.77
2022-10-26T07:59:21.381Z,12.81
2022-10-26T08:01:49.711Z,12.86
2022-10-26T08:04:18.042Z,12.91
2022-10-26T08:06:47.439Z,12.95
2022-10-26T08:09:15.689Z,13.00
2022-10-26T08:11:43.996Z,13.06
2022-10-26T08:14:12.894Z,13.10
2022-10-26T08:16:41.166Z,13.18
2022-10-26T08:19:09.824Z,13.24
2022-10-26T08:21:40.918Z,13.33
2022-10-26T08:24:09.319Z,13.48
2022-10-26T08:26:37.758Z,13.63
2022-10-26T08:29:05.922Z,13.79
2022-10-26T08:31:34.193Z,13.89
2022-10-26T08:34:04.164Z,13.95
2022-10-26T08:36:32.461Z,14.02
2022-10-26T08:39:04.086Z,14.13
2022-10-26T08:41:47.833Z,14.25
2022-10-26T08:44:26.166Z,14.29
2022-10-26T08:47:11.353Z,14.33
2022-10-26T08:49:47.385Z,14.40
2022-10-26T08:52:22.799Z,14.46
2022-10-26T08:54:54.643Z,14.53
2022-10-26T08:57:38.759Z,14.66
2022-10-26T09:00:17.579Z,14.81
2022-10-26T09:02:49.990Z,14.95
2022-10-26T09:05:23.700Z,15.10
2022-10-26T09:08:07.059Z,15.21
2022-10-26T09:10:41.467Z,15.33
2022-10-26T09:13:42.860Z,15.37
2022-10-26T09:16:23.507Z,15.41
2022-10-26T09:19:35.570Z,15.46
2022-10-26T09:22:31.861Z,15.43
2022-10-26T09:25:12.772Z,15.43
2022-10-26T09:27:47.823Z,15.46
2022-10-26T09:30:20.579Z,15.42
2022-10-26T09:32:52.763Z,15.41
2022-10-26T09:35:31.616Z,15.49
2022-10-26T09:38:09.970Z,15.65
2022-10-26T09:40:47.641Z,15.70
2022-10-26T09:43:30.647Z,15.78
2022-10-26T09:45:58.987Z,15.94
2022-10-26T09:48:41.584Z,16.15
2022-10-26T09:51:11.321Z,16.40
2022-10-26T09:53:39.613Z,16.61
2022-10-26T09:56:11.877Z,16.87
2022-10-26T09:59:05.368Z,16.97
2022-10-26T10:01:38.494Z,16.99
2022-10-26T10:04:13.632Z,17.02
2022-10-26T10:06:43.379Z,17.15
2022-10-26T10:09:15.960Z,17.35
2022-10-26T10:11:58.004Z,17.58
2022-10-26T10:14:39.664Z,17.76
2022-10-26T10:17:23.272Z,17.83
2022-10-26T10:19:52.739Z,17.95
2022-10-26T10:22:25.578Z,18.21
2022-10-26T10:25:00.113Z,18.43
2022-10-26T10:27:30.314Z,18.49
2022-10-26T10:30:07.206Z,18.59
2022-10-26T10:32:38.958Z,18.68
2022-10-26T10:35:24.653Z,18.65
2022-10-26T10:37:53.195Z,18.88
2022-10-26T10:40:24.708Z,19.05
2022-10-26T10:43:03.269Z,19.10
2022-10-26T10:45:32.761Z,18.86
2022-10-26T10:48:13.340Z,18.61
2022-10-26T10:51:01.137Z,18.33
2022-10-26T10:53:44.694Z,18.07
2022-10-26T10:56:28.383Z,18.09
2022-10-26T10:59:19.241Z,17.90
2022-10-26T11:02:29.489Z,17.64
2022-10-26T11:05:13.337Z,17.33
2022-10-26T11:07:52.925Z,17.08
2022-10-26T11:10:26.879Z,16.95
2022-10-26T11:12:59.873Z,16.87
2022-10-26T11:15:32.870Z,16.74
2022-10-26T11:18:13.870Z,16.63
2022-10-26T11:21:38.177Z,16.58
2022-10-26T11:24:22.637Z,16.58
2022-10-26T11:26:54.341Z,16.53
2022-10-26T11:29:48.643Z,16.49
2022-10-26T11:32:22.869Z,16.60
2022-10-26T11:35:00.736Z,16.61
2022-10-26T11:37:51.450Z,16.58
2022-10-26T11:40:44.844Z,16.61
2022-10-26T11:43:31.312Z,16.95
2022-10-26T11:46:24.418Z,17.16
2022-10-26T11:49:07.300Z,17.07
2022-10-26T11:51:41.696Z,16.94
2022-10-26T11:54:26.142Z,16.75
2022-10-26T11:56:57.116Z,16.62
2022-10-26T11:59:37.968Z,16.58
2022-10-26T12:02:15.498Z,17.01
2022-10-26T12:04:47.729Z,17.63
2022-10-26T12:07:26.683Z,17.44
2022-10-26T12:09:57.826Z,17.14
2022-10-26T12:12:37.449Z,16.88
2022-10-26T12:15:35.546Z,16.65
2022-10-26T12:18:43.202Z,16.43
2022-10-26T12:21:15.703Z,16.26
2022-10-26T12:23:59.514Z,16.14
2022-10-26T12:26:27.704Z,16.00
2022-10-26T12:29:02.545Z,15.89
2022-10-26T12:31:37.043Z,15.80
2022-10-26T12:34:12.371Z,15.78
2022-10-26T12:36:56.628Z,15.97
2022-10-26T12:39:35.757Z,16.44
2022-10-26T12:42:10.012Z,17.39
2022-10-26T12:44:41.468Z,17.71
2022-10-26T12:47:30.522Z,18.14
2022-10-26T12:50:05.765Z,19.70
2022-10-26T12:52:45.602Z,20.90
2022-10-26T12:55:20.349Z,21.69
2022-10-26T12:58:07.684Z,22.92
2022-10-26T13:00:42.732Z,23.59
2022-10-26T13:03:39.623Z,24.97
2022-10-26T13:06:17.442Z,26.46
2022-10-26T13:08:49.303Z,26.84
2022-10-26T13:11:23.316Z,28.11
2022-10-26T13:13:57.419Z,29.89
2022-10-26T13:16:28.335Z,31.50
2022-10-26T13:18:57.436Z,32.97
2022-10-26T13:21:26.841Z,34.26
2022-10-26T13:23:55.863Z,35.21
2022-10-26T13:26:26.569Z,36.01
2022-10-26T13:28:57.439Z,36.60
2022-10-26T13:31:28.771Z,36.70
2022-10-26T13:34:01.668Z,36.75
2022-10-26T13:36:45.671Z,36.45
2022-10-26T13:39:20.725Z,35.50
2022-10-26T13:41:52.583Z,33.98
2022-10-26T13:44:27.826Z,32.21
2022-10-26T13:47:02.477Z,30.49
2022-10-26T13:49:39.402Z,28.69
2022-10-26T13:52:19.124Z,27.28
2022-10-26T13:54:59.256Z,26.04
2022-10-26T13:57:43.867Z,24.65
2022-10-26T14:00:23.829Z,23.55
2022-10-26T14:02:52.357Z,22.75
2022-10-26T14:05:22.223Z,22.08
2022-10-26T14:07:56.858Z,21.49
2022-10-26T14:10:38.918Z,20.83
2022-10-26T14:13:08.920Z,20.34
2022-10-26T14:15:37.248Z,19.88
2022-10-26T14:18:05.485Z,19.46
2022-10-26T14:20:33.909Z,19.10
2022-10-26T14:23:02.107Z,18.63
2022-10-26T14:25:42.400Z,18.20
2022-10-26T14:28:28.910Z,17.83
2022-10-26T14:31:25.464Z,17.48
2022-10-26T14:33:54.925Z,17.17
2022-10-26T14:36:34.311Z,16.90
2022-10-26T14:39:07.932Z,16.66
2022-10-26T14:41:36.584Z,16.42
2022-10-26T14:44:04.971Z,16.27
2022-10-26T14:46:35.848Z,16.10
2022-10-26T14:49:04.915Z,15.97
2022-10-26T14:51:36.437Z,15.82
2022-10-26T14:54:05.043Z,15.67
2022-10-26T14:56:36.548Z,15.51
2022-10-26T14:59:24.571Z,15.38
2022-10-26T15:02:02.437Z,15.27
2022-10-26T15:04:36.660Z,15.18
2022-10-26T15:07:18.811Z,15.07
2022-10-26T15:09:49.366Z,14.96
2022-10-26T15:12:23.611Z,14.88
2022-10-26T15:14:52.588Z,14.81
2022-10-26T15:17:24.645Z,14.79
2022-10-26T15:19:53.954Z,14.75
2022-10-26T15:22:31.147Z,14.66
2022-10-26T15:25:04.745Z,14.57
2022-10-26T15:27:33.156Z,14.55
2022-10-26T15:30:37.242Z,14.53
2022-10-26T15:33:22.234Z,14.43
2022-10-26T15:35:50.706Z,14.36
2022-10-26T15:38:19.032Z,14.32
2022-10-26T15:40:47.085Z,14.28
2022-10-26T15:43:15.451Z,14.23
2022-10-26T15:45:52.171Z,14.18
2022-10-26T15:48:29.315Z,14.10
2022-10-26T15:50:58.394Z,14.00
2022-10-26T15:53:27.674Z,13.97
2022-10-26T15:55:58.916Z,13.91
2022-10-26T15:58:29.833Z,13.80
2022-10-26T16:00:57.933Z,13.74
2022-10-26T16:03:27.390Z,13.71
2022-10-26T16:05:58.790Z,13.67
2022-10-26T16:08:30.120Z,13.62
2022-10-26T16:10:58.826Z,13.57
2022-10-26T16:13:26.945Z,13.53
2022-10-26T16:15:55.312Z,13.43
2022-10-26T16:18:23.662Z,13.35
2022-10-26T16:20:51.777Z,13.30
2022-10-26T16:23:19.899Z,13.20
2022-10-26T16:25:48.051Z,13.14
2022-10-26T16:28:17.351Z,13.09
2022-10-26T16:30:45.842Z,13.06
2022-10-26T16:33:14.252Z,13.03
2022-10-26T16:35:42.356Z,12.99
2022-10-26T16:38:10.597Z,12.94
2022-10-26T16:40:42.746Z,12.93
2022-10-26T16:43:11.136Z,12.92
2022-10-26T16:45:41.848Z,12.90
2022-10-26T16:48:15.359Z,12.89
2022-10-26T16:50:43.610Z,12.89
2022-10-26T16:53:12.000Z,12.93
2022-10-26T16:55:40.344Z,12.94
2022-10-26T16:58:08.584Z,12.93
2022-10-26T17:00:37.832Z,12.90
2022-10-26T17:03:06.024Z,12.87
2022-10-26T17:05:34.381Z,12.85
2022-10-26T17:08:02.600Z,12.85
2022-10-26T17:10:30.716Z,12.82
2022-10-26T17:12:58.990Z,12.79
2022-10-26T17:15:29.020Z,12.80
2022-10-26T17:17:57.467Z,12.82
2022-10-26T17:20:25.900Z,12.84
2022-10-26T17:22:55.380Z,12.84
2022-10-26T17:25:23.581Z,12.81
2022-10-26T17:27:51.753Z,12.78
2022-10-26T17:30:19.911Z,12.74
2022-10-26T17:32:48.461Z,12.70
2022-10-26T17:35:17.035Z,12.69
2022-10-26T17:37:45.430Z,12.69
2022-10-26T17:40:13.953Z,12.66
2022-10-26T17:42:42.127Z,12.66
2022-10-26T17:45:10.677Z,12.64
2022-10-26T17:47:38.952Z,12.65
2022-10-26T17:50:08.135Z,12.67
2022-10-26T17:52:36.360Z,12.67
2022-10-26T17:55:05.072Z,12.66
2022-10-26T17:57:34.157Z,12.63
2022-10-26T18:00:03.924Z,12.59
2022-10-26T18:02:40.906Z,12.56
2022-10-26T18:05:09.634Z,12.54
2022-10-26T18:07:37.869Z,12.53
2022-10-26T18:10:13.822Z,12.52
2022-10-26T18:12:54.768Z,12.53
2022-10-26T18:15:24.029Z,12.47
2022-10-26T18:17:55.548Z,12.40
2022-10-26T18:20:28.330Z,12.35
2022-10-26T18:22:57.136Z,12.30
2022-10-26T18:25:26.209Z,12.27
2022-10-26T18:27:55.913Z,12.22
2022-10-26T18:30:24.834Z,12.18
2022-10-26T18:32:53.788Z,12.15
2022-10-26T18:35:23.615Z,12.07
2022-10-26T18:37:52.088Z,12.03
2022-10-26T18:40:20.501Z,12.00
2022-10-26T18:42:49.080Z,12.00
2022-10-26T18:45:17.537Z,12.04
2022-10-26T18:47:45.678Z,12.07
2022-10-26T18:50:13.953Z,12.08
2022-10-26T18:52:42.179Z,12.08
2022-10-26T18:55:10.334Z,12.07
2022-10-26T18:57:39.946Z,12.02
2022-10-26T19:00:08.884Z,11.94
2022-10-26T19:02:37.234Z,11.93
2022-10-26T19:05:06.412Z,11.93
2022-10-26T19:07:34.526Z,11.93
2022-10-26T19:10:02.968Z,11.93
2022-10-26T19:12:31.680Z,11.94
2022-10-26T19:14:59.787Z,11.92
2022-10-26T19:17:28.178Z,11.88
2022-10-26T19:19:57.100Z,11.88
2022-10-26T19:22:25.190Z,11.88
2022-10-26T19:24:53.453Z,11.89
2022-10-26T19:27:22.136Z,11.90
2022-10-26T19:29:50.216Z,11.91
2022-10-26T19:32:18.383Z,11.92
2022-10-26T19:34:47.125Z,11.90
2022-10-26T19:37:15.384Z,11.89
2022-10-26T19:39:43.574Z,11.86
2022-10-26T19:42:11.876Z,11.80
2022-10-26T19:44:39.986Z,11.73
2022-10-26T19:47:08.241Z,11.67
2022-10-26T19:49:36.451Z,11.63
2022-10-26T19:52:04.900Z,11.59
2022-10-26T19:54:33.353Z,11.59
2022-10-26T19:57:01.850Z,11.61
2022-10-26T19:59:30.024Z,11.60
2022-10-26T20:02:00.381Z,11.58
2022-10-26T20:04:28.681Z,11.59
2022-10-26T20:06:56.844Z,11.56
2022-10-26T20:09:25.158Z,11.56
2022-10-26T20:11:53.552Z,11.52
2022-10-26T20:14:21.714Z,11.44
2022-10-26T20:16:49.857Z,11.42
2022-10-26T20:19:18.498Z,11.45
2022-10-26T20:21:46.848Z,11.48
2022-10-26T20:24:14.990Z,11.49
2022-10-26T20:26:43.169Z,11.46
2022-10-26T20:29:11.594Z,11.39
2022-10-26T20:31:39.830Z,11.38
2022-10-26T20:34:08.069Z,11.35
2022-10-26T20:36:36.268Z,11.29
2022-10-26T20:39:05.143Z,11.29
2022-10-26T20:41:33.725Z,11.28
2022-10-26T20:44:02.366Z,11.27
2022-10-26T20:46:30.947Z,11.25
2022-10-26T20:48:59.568Z,11.27
2022-10-26T20:52:02.732Z,11.25
2022-10-26T20:54:59.492Z,11.21
2022-10-26T20:57:30.932Z,11.20
2022-10-26T21:00:09.254Z,11.18
2022-10-26T21:02:37.989Z,11.10
2022-10-26T21:05:06.628Z,11.01
2022-10-26T21:07:34.783Z,10.98
2022-10-26T21:10:02.902Z,10.93
2022-10-26T21:12:31.120Z,10.90
2022-10-26T21:14:59.263Z,10.87
2022-10-26T21:17:27.635Z,10.81
2022-10-26T21:19:56.131Z,10.75
2022-10-26T21:22:24.424Z,10.66
2022-10-26T21:24:52.524Z,10.66
2022-10-26T21:27:20.634Z,10.69
2022-10-26T21:29:48.757Z,10.70
2022-10-26T21:32:16.905Z,10.71
2022-10-26T21:34:45.160Z,10.74
2022-10-26T21:37:13.421Z,10.74
2022-10-26T21:39:41.558Z,10.76
2022-10-26T21:42:09.713Z,10.78
2022-10-26T21:44:41.752Z,10.76
2022-10-26T21:47:11.442Z,10.77
2022-10-26T21:52:13.034Z,10.83
2022-10-26T21:54:41.488Z,10.83
2022-10-26T21:57:09.670Z,10.84
2022-10-26T21:59:37.774Z,10.84
2022-10-26T22:02:05.997Z,10.81
2022-10-26T22:04:34.390Z,10.77
2022-10-26T22:07:02.522Z,10.77
2022-10-26T22:09:30.823Z,10.78
2022-10-26T22:11:59.043Z,10.81
2022-10-26T22:14:27.129Z,10.83
2022-10-26T22:16:55.386Z,10.83
2022-10-26T22:19:23.549Z,10.78
2022-10-26T22:21:51.732Z,10.70
2022-10-26T22:24:20.047Z,10.66
2022-10-26T22:26:51.216Z,10.65
2022-10-26T22:29:19.450Z,10.67
2022-10-26T22:31:47.698Z,10.67
2022-10-26T22:34:16.685Z,10.69
2022-10-26T22:36:45.093Z,10.70
2022-10-26T22:39:13.823Z,10.63
2022-10-26T22:41:42.054Z,10.63
2022-10-26T22:44:10.476Z,10.69
2022-10-26T22:46:38.695Z,10.73
2022-10-26T22:49:06.810Z,10.79
2022-10-26T22:51:35.424Z,10.78
2022-10-26T22:54:05.285Z,10.76
2022-10-26T22:56:36.018Z,10.77
2022-10-26T22:59:05.945Z,10.77
2022-10-26T23:01:37.900Z,10.79
2022-10-26T23:04:06.088Z,10.82
2022-10-26T23:06:34.459Z,10.84
2022-10-26T23:09:02.794Z,10.88
2022-10-26T23:11:31.102Z,10.86
2022-10-26T23:14:01.006Z,10.80
2022-10-26T23:16:30.401Z,10.81
2022-10-26T23:18:59.914Z,10.84
2022-10-26T23:21:29.389Z,10.84
2022-10-26T23:23:58.209Z,10.81
2022-10-26T23:26:26.879Z,10.81
2022-10-26T23:28:55.102Z,10.79
2022-10-26T23:31:26.337Z,10.84
2022-10-26T23:33:56.405Z,10.89
2022-10-26T23:36:25.162Z,10.87
2022-10-26T23:38:53.459Z,10.84
2022-10-26T23:41:21.603Z,10.85
2022-10-26T23:43:49.988Z,10.84
2022-10-26T23:46:18.163Z,10.83
2022-10-26T23:48:46.343Z,10.82
2022-10-26T23:51:14.528Z,10.80
2022-10-26T23:53:42.799Z,10.81
2022-10-26T23:56:11.047Z,10.86
2022-10-26T23:58:39.401Z,10.83
